createdAt,value
2022-11-12T00:01:47.371Z,4.88
2022-11-12T00:04:32.894Z,4.47
2022-11-12T00:07:18.295Z,4.82
2022-11-12T00:10:05.207Z,3.83
2022-11-12T00:12:50.908Z,3.92
2022-11-12T00:15:36.553Z,3.60
2022-11-12T00:18:21.893Z,5.13
2022-11-12T00:21:07.750Z,3.92
2022-11-12T00:23:53.001Z,3.15
2022-11-12T00:26:38.589Z,4.10
2022-11-12T00:29:24.573Z,3.08
2022-11-12T00:32:10.192Z,3.38
2022-11-12T00:34:56.311Z,3.85
2022-11-12T00:37:41.621Z,4.28
2022-11-12T00:40:28.040Z,3.85
2022-11-12T00:43:13.618Z,3.85
2022-11-12T00:46:01.807Z,4.80
2022-11-12T00:48:48.657Z,2.85
2022-11-12T00:51:34.900Z,3.42
2022-11-12T00:54:20.171Z,2.75
2022-11-12T00:57:05.916Z,3.75
2022-11-12T00:59:51.152Z,3.28
2022-11-12T01:02:42.444Z,4.05
2022-11-12T01:05:30.146Z,3.60
2022-11-12T01:08:15.812Z,4.63
2022-11-12T01:11:18.311Z,3.30
2022-11-12T01:14:09.440Z,4.40
2022-11-12T01:16:54.914Z,4.47
2022-11-12T01:19:40.514Z,4.25
2022-11-12T01:22:25.905Z,3.75
2022-11-12T01:25:11.383Z,4.05
2022-11-12T01:27:58.058Z,4.47
2022-11-12T01:30:43.916Z,3.75
2022-11-12T01:33:29.636Z,4.35
2022-11-12T01:36:16.843Z,4.30
2022-11-12T01:39:04.366Z,3.72
2022-11-12T01:41:51.079Z,3.72
2022-11-12T01:44:40.242Z,3.67
2022-11-12T01:47:34.183Z,3.35
2022-11-12T01:50:34.347Z,3.95
2022-11-12T01:53:22.494Z,3.90
2022-11-12T01:56:08.792Z,3.45
2022-11-12T01:58:59.921Z,2.92
2022-11-12T02:01:45.633Z,3.55
2022-11-12T02:04:33.773Z,5.05
2022-11-12T02:07:22.459Z,4.05
2022-11-12T02:10:09.925Z,3.95
2022-11-12T02:13:15.053Z,3.85
2022-11-12T02:16:03.383Z,3.95
2022-11-12T02:18:48.956Z,4.63
2022-11-12T02:21:35.381Z,3.78
2022-11-12T02:24:20.673Z,3.65
2022-11-12T02:27:06.921Z,3.45
2022-11-12T02:29:52.637Z,3.75
2022-11-12T02:32:38.348Z,4.05
2022-11-12T02:35:23.624Z,4.18
2022-11-12T02:38:10.038Z,3.78
2022-11-12T02:40:55.520Z,4.43
2022-11-12T02:43:41.713Z,3.90
2022-11-12T02:46:27.511Z,3.75
2022-11-12T02:49:13.124Z,4.90
2022-11-12T02:51:58.548Z,4.22
2022-11-12T02:54:44.432Z,4.05
2022-11-12T02:57:30.403Z,4.78
2022-11-12T03:00:18.779Z,4.68
2022-11-12T03:03:05.275Z,4.28
2022-11-12T03:05:59.980Z,3.97
2022-11-12T03:08:45.857Z,3.90
2022-11-12T03:11:31.918Z,3.90
2022-11-12T03:14:17.197Z,3.35
2022-11-12T03:17:05.544Z,3.45
2022-11-12T03:19:51.246Z,2.80
2022-11-12T03:22:37.922Z,5.10
2022-11-12T03:25:24.594Z,3.90
2022-11-12T03:28:13.017Z,3.45
2022-11-12T03:31:00.576Z,3.35
2022-11-12T03:33:46.601Z,3.42
2022-11-12T03:36:32.464Z,3.05
2022-11-12T03:39:18.239Z,2.70
2022-11-12T03:42:04.517Z,3.40
2022-11-12T03:44:50.319Z,3.15
2022-11-12T03:47:35.862Z,2.30
2022-11-12T03:50:23.861Z,2.83
2022-11-12T03:53:09.385Z,3.25
2022-11-12T03:55:55.019Z,2.88
2022-11-12T03:58:40.695Z,3.17
2022-11-12T04:01:26.227Z,3.72
2022-11-12T04:04:12.016Z,3.25
2022-11-12T04:07:16.256Z,3.60
2022-11-12T04:10:01.963Z,3.75
2022-11-12T04:13:09.146Z,4.93
2022-11-12T04:16:27.555Z,3.80
2022-11-12T04:19:32.075Z,3.30
2022-11-12T04:22:17.657Z,3.85
2022-11-12T04:25:22.094Z,4.38
2022-11-12T04:28:07.488Z,4.38
2022-11-12T04:30:52.874Z,3.40
2022-11-12T04:33:38.457Z,4.07
2022-11-12T04:36:24.030Z,2.88
2022-11-12T04:39:09.426Z,4.45
2022-11-12T04:42:13.630Z,4.28
2022-11-12T04:45:04.978Z,2.95
2022-11-12T04:47:50.540Z,4.40
2022-11-12T04:50:36.713Z,3.03
2022-11-12T04:53:23.579Z,4.13
2022-11-12T04:56:09.411Z,3.80
2022-11-12T04:58:54.939Z,4.20
2022-11-12T05:01:40.512Z,4.10
2022-11-12T05:04:28.838Z,4.78
2022-11-12T05:07:15.437Z,5.53
2022-11-12T05:10:01.152Z,4.57
2022-11-12T05:12:46.370Z,4.43
2022-11-12T05:15:32.192Z,3.60
2022-11-12T05:18:17.511Z,3.35
2022-11-12T05:21:22.931Z,4.43
2022-11-12T05:24:17.852Z,4.63
2022-11-12T05:27:17.932Z,4.55
2022-11-12T05:30:04.638Z,4.43
2022-11-12T05:32:50.327Z,4.78
2022-11-12T05:35:35.976Z,4.40
2022-11-12T05:38:21.251Z,5.40
2022-11-12T05:41:06.819Z,4.97
2022-11-12T05:43:52.167Z,5.65
2022-11-12T05:46:37.717Z,5.30
2022-11-12T05:49:23.209Z,5.65
2022-11-12T05:52:08.660Z,5.28
2022-11-12T05:54:54.480Z,5.70
2022-11-12T05:57:42.337Z,4.68
2022-11-12T06:00:28.108Z,4.22
2022-11-12T06:03:14.242Z,5.93
2022-11-12T06:05:59.908Z,5.10
2022-11-12T06:08:45.460Z,6.93
2022-11-12T06:11:31.375Z,5.07
2022-11-12T06:14:17.037Z,6.50
2022-11-12T06:17:02.675Z,6.30
2022-11-12T06:19:48.154Z,5.65
2022-11-12T06:22:34.018Z,5.13
2022-11-12T06:25:19.948Z,5.47
2022-11-12T06:28:05.706Z,4.50
2022-11-12T06:30:51.465Z,5.03
2022-11-12T06:33:36.897Z,5.65
2022-11-12T06:36:22.622Z,5.07
2022-11-12T06:39:08.271Z,6.40
2022-11-12T06:41:54.704Z,8.55
2022-11-12T06:44:40.095Z,8.20
2022-11-12T06:47:25.661Z,8.30
2022-11-12T06:50:11.664Z,9.93
2022-11-12T06:53:03.587Z,8.93
2022-11-12T06:55:48.875Z,7.15
2022-11-12T06:58:35.212Z,6.88
2022-11-12T07:01:21.202Z,6.03
2022-11-12T07:04:06.764Z,5.43
2022-11-12T07:06:53.609Z,5.60
2022-11-12T07:09:39.109Z,5.88
2022-11-12T07:12:24.917Z,5.25
2022-11-12T07:15:11.016Z,5.70
2022-11-12T07:17:56.633Z,6.97
2022-11-12T07:20:42.594Z,5.57
2022-11-12T07:23:28.930Z,5.68
2022-11-12T07:26:21.745Z,6.28
2022-11-12T07:29:07.371Z,4.82
2022-11-12T07:31:53.037Z,4.88
2022-11-12T07:34:38.836Z,6.88
2022-11-12T07:37:24.230Z,4.75
2022-11-12T07:40:10.274Z,5.10
2022-11-12T07:42:55.795Z,4.53
2022-11-12T07:45:41.382Z,4.88
2022-11-12T07:48:28.782Z,5.35
2022-11-12T07:51:17.258Z,5.28
2022-11-12T07:54:02.627Z,4.55
2022-11-12T07:56:48.060Z,4.40
2022-11-12T07:59:33.794Z,4.43
2022-11-12T08:02:19.584Z,5.63
2022-11-12T08:05:12.021Z,5.18
2022-11-12T08:08:01.271Z,6.13
2022-11-12T08:10:47.248Z,5.28
2022-11-12T08:13:33.086Z,6.28
2022-11-12T08:16:18.825Z,4.60
2022-11-12T08:19:04.551Z,5.85
2022-11-12T08:21:49.946Z,4.80
2022-11-12T08:24:35.386Z,6.13
2022-11-12T08:27:21.246Z,6.28
2022-11-12T08:30:08.116Z,5.78
2022-11-12T08:33:02.771Z,6.00
2022-11-12T08:35:48.565Z,5.15
2022-11-12T08:38:34.697Z,6.30
2022-11-12T08:41:20.024Z,4.07
2022-11-12T08:44:08.716Z,6.75
2022-11-12T08:46:54.875Z,6.57
2022-11-12T08:49:46.688Z,4.88
2022-11-12T08:52:33.584Z,3.97
2022-11-12T08:55:19.414Z,4.30
2022-11-12T08:58:06.723Z,5.80
2022-11-12T09:00:53.741Z,4.05
2022-11-12T09:03:39.532Z,4.13
2022-11-12T09:06:25.370Z,5.75
2022-11-12T09:09:10.890Z,4.78
2022-11-12T09:11:56.719Z,4.70
2022-11-12T09:14:42.420Z,4.65
2022-11-12T09:17:29.269Z,4.30
2022-11-12T09:20:15.181Z,4.78
2022-11-12T09:23:03.615Z,4.30
2022-11-12T09:25:49.017Z,3.80
2022-11-12T09:28:34.812Z,3.95
2022-11-12T09:31:20.677Z,4.00
2022-11-12T09:34:06.198Z,4.07
2022-11-12T09:36:51.922Z,3.97
2022-11-12T09:39:37.489Z,4.32
2022-11-12T09:42:23.883Z,3.90
2022-11-12T09:45:22.490Z,3.72
2022-11-12T09:48:12.155Z,3.70
2022-11-12T09:51:10.645Z,3.50
2022-11-12T09:53:58.580Z,5.07
2022-11-12T09:56:44.279Z,3.15
2022-11-12T09:59:41.999Z,3.58
2022-11-12T10:02:36.138Z,3.75
2022-11-12T10:05:47.211Z,3.10
2022-11-12T10:08:48.569Z,3.25
2022-11-12T10:12:03.879Z,3.60
2022-11-12T10:14:53.364Z,2.80
2022-11-12T10:17:47.772Z,2.45
2022-11-12T10:21:09.321Z,2.65
2022-11-12T10:23:55.199Z,2.27
2022-11-12T10:26:41.068Z,2.30
2022-11-12T10:29:40.659Z,3.30
2022-11-12T10:32:26.560Z,2.50
2022-11-12T10:35:18.524Z,3.15
2022-11-12T10:38:12.758Z,2.88
2022-11-12T10:40:58.464Z,2.55
2022-11-12T10:43:55.728Z,3.17
2022-11-12T10:46:41.696Z,3.00
2022-11-12T10:49:27.401Z,2.58
2022-11-12T10:52:24.478Z,2.28
2022-11-12T10:55:22.986Z,2.70
2022-11-12T10:58:11.502Z,2.58
2022-11-12T11:01:04.806Z,2.58
2022-11-12T11:03:56.152Z,2.72
2022-11-12T11:06:41.830Z,2.83
2022-11-12T11:09:27.895Z,2.80
2022-11-12T11:12:23.747Z,2.20
2022-11-12T11:15:21.403Z,2.28
2022-11-12T11:18:12.818Z,2.05
2022-11-12T11:21:16.700Z,2.35
2022-11-12T11:24:20.775Z,2.63
2022-11-12T11:27:28.183Z,2.72
2022-11-12T11:30:19.067Z,2.15
2022-11-12T11:33:16.055Z,2.17
2022-11-12T11:36:09.997Z,2.50
2022-11-12T11:39:25.428Z,2.35
2022-11-12T11:42:23.730Z,2.10
2022-11-12T11:45:28.007Z,2.20
2022-11-12T11:48:35.982Z,2.25
2022-11-12T11:51:47.563Z,2.38
2022-11-12T11:55:08.154Z,2.15
2022-11-12T11:58:17.646Z,2.08
2022-11-12T12:01:28.673Z,2.10
2022-11-12T12:04:39.177Z,1.83
2022-11-12T12:07:27.406Z,1.88
2022-11-12T12:10:40.205Z,1.90
2022-11-12T12:14:04.204Z,1.80
2022-11-12T12:17:21.801Z,2.30
2022-11-12T12:20:30.314Z,1.80
2022-11-12T12:23:34.081Z,1.92
2022-11-12T12:26:44.251Z,1.90
2022-11-12T12:29:44.251Z,1.80
2022-11-12T12:32:33.574Z,1.98
2022-11-12T12:35:34.915Z,2.88
2022-11-12T12:38:26.349Z,2.20
2022-11-12T12:44:25.784Z,2.28
2022-11-12T12:47:13.989Z,1.90
2022-11-12T12:50:05.359Z,2.10
2022-11-12T12:53:16.008Z,2.05
2022-11-12T12:56:09.045Z,3.17
2022-11-12T12:58:55.826Z,3.25
2022-11-12T13:01:41.431Z,3.22
2022-11-12T13:04:53.712Z,3.03
2022-11-12T13:07:39.481Z,2.70
2022-11-12T13:10:47.225Z,3.75
2022-11-12T13:13:38.871Z,2.65
2022-11-12T13:16:52.204Z,3.15
2022-11-12T13:19:53.941Z,2.67
2022-11-12T13:22:41.921Z,2.80
2022-11-12T13:25:32.439Z,3.13
2022-11-12T13:28:21.960Z,3.45
2022-11-12T13:31:28.523Z,3.25
2022-11-12T13:34:22.281Z,2.78
2022-11-12T13:37:19.205Z,3.00
2022-11-12T13:40:09.791Z,2.85
2022-11-12T13:43:03.511Z,2.22
2022-11-12T13:45:58.163Z,2.45
2022-11-12T13:48:46.673Z,3.55
2022-11-12T13:51:39.282Z,3.15
2022-11-12T13:57:15.503Z,2.65
2022-11-12T14:00:22.469Z,2.92
2022-11-12T14:03:08.268Z,2.35
2022-11-12T14:05:58.705Z,2.38
2022-11-12T14:09:26.042Z,2.67
2022-11-12T14:12:46.022Z,2.95
2022-11-12T14:15:41.044Z,2.47
2022-11-12T14:18:45.021Z,2.55
2022-11-12T14:21:30.979Z,2.75
2022-11-12T14:24:16.474Z,3.30
2022-11-12T14:27:02.378Z,3.40
2022-11-12T14:29:48.013Z,2.80
2022-11-12T14:32:42.014Z,3.25
2022-11-12T14:35:32.031Z,3.72
2022-11-12T14:38:22.076Z,2.92
2022-11-12T14:41:19.523Z,3.92
2022-11-12T14:44:15.196Z,4.15
2022-11-12T14:47:01.671Z,3.75
2022-11-12T14:49:49.449Z,3.55
2022-11-12T14:52:41.605Z,4.10
2022-11-12T14:55:32.661Z,4.40
2022-11-12T14:58:20.256Z,4.00
2022-11-12T15:02:32.529Z,4.05
2022-11-12T15:05:17.272Z,3.55
2022-11-12T15:08:24.990Z,3.63
2022-11-12T15:11:28.578Z,3.45
2022-11-12T15:14:24.340Z,3.72
2022-11-12T15:17:33.790Z,3.90
2022-11-12T15:20:20.454Z,5.10
2022-11-12T15:23:13.827Z,3.72
2022-11-12T15:26:01.201Z,3.40
2022-11-12T15:29:12.224Z,4.13
2022-11-12T15:32:14.064Z,5.30
2022-11-12T15:35:00.004Z,3.35
2022-11-12T15:37:46.062Z,3.03
2022-11-12T15:40:33.138Z,3.50
2022-11-12T15:43:30.156Z,4.00
2022-11-12T15:46:16.567Z,7.38
2022-11-12T15:49:02.263Z,18.83
2022-11-12T15:51:48.210Z,11.10
2022-11-12T15:54:39.720Z,7.35
2022-11-12T15:57:30.678Z,7.95
2022-11-12T16:00:32.857Z,5.43
2022-11-12T16:06:09.310Z,4.00
2022-11-12T16:08:55.404Z,4.78
2022-11-12T16:11:41.645Z,4.05
2022-11-12T16:14:27.776Z,5.53
2022-11-12T16:17:17.946Z,4.20
2022-11-12T16:20:13.155Z,4.93
2022-11-12T16:23:01.152Z,3.95
2022-11-12T16:25:47.392Z,4.05
2022-11-12T16:28:33.355Z,9.85
2022-11-12T16:31:20.896Z,14.35
2022-11-12T16:34:06.764Z,11.80
2022-11-12T16:36:52.831Z,10.40
2022-11-12T16:39:38.602Z,10.48
2022-11-12T16:42:24.480Z,9.45
2022-11-12T16:45:10.124Z,7.03
2022-11-12T16:47:56.192Z,6.47
2022-11-12T16:50:41.802Z,5.75
2022-11-12T16:53:27.829Z,4.85
2022-11-12T16:56:22.242Z,4.38
2022-11-12T16:59:10.906Z,5.45
2022-11-12T17:01:56.365Z,4.55
2022-11-12T17:04:41.815Z,4.40
2022-11-12T17:07:27.496Z,4.43
2022-11-12T17:10:14.710Z,4.95
2022-11-12T17:13:00.348Z,4.10
2022-11-12T17:15:57.865Z,5.07
2022-11-12T17:18:43.282Z,5.65
2022-11-12T17:21:29.224Z,8.15
2022-11-12T17:24:15.015Z,18.58
2022-11-12T17:27:03.917Z,14.70
2022-11-12T17:29:49.322Z,8.95
2022-11-12T17:32:34.782Z,7.47
2022-11-12T17:35:20.411Z,6.10
2022-11-12T17:38:06.293Z,6.35
2022-11-12T17:40:56.082Z,5.03
2022-11-12T17:43:42.217Z,5.28
2022-11-12T17:46:29.030Z,5.25
2022-11-12T17:49:15.663Z,4.60
2022-11-12T17:52:01.182Z,4.20
2022-11-12T17:54:47.215Z,4.63
2022-11-12T17:57:33.070Z,3.50
2022-11-12T18:00:19.268Z,5.13
2022-11-12T18:03:06.153Z,6.05
2022-11-12T18:05:59.634Z,4.60
2022-11-12T18:08:45.675Z,4.60
2022-11-12T18:11:47.996Z,5.32
2022-11-12T18:14:34.415Z,6.68
2022-11-12T18:17:19.982Z,6.22
2022-11-12T18:20:09.458Z,5.65
2022-11-12T18:22:56.859Z,5.53
2022-11-12T18:25:42.982Z,5.03
2022-11-12T18:28:30.157Z,5.20
2022-11-12T18:31:19.428Z,5.13
2022-11-12T18:34:06.953Z,4.57
2022-11-12T18:36:55.697Z,5.50
2022-11-12T18:39:41.520Z,4.88
2022-11-12T18:42:28.916Z,3.97
2022-11-12T18:45:14.955Z,4.32
2022-11-12T18:48:04.075Z,4.18
2022-11-12T18:50:50.067Z,5.20
2022-11-12T18:53:38.156Z,4.07
2022-11-12T18:56:25.069Z,6.68
2022-11-12T18:59:13.965Z,4.25
2022-11-12T19:02:05.214Z,4.18
2022-11-12T19:04:51.162Z,4.40
2022-11-12T19:07:36.955Z,3.47
2022-11-12T19:10:23.320Z,4.00
2022-11-12T19:13:09.230Z,4.13
2022-11-12T19:15:56.390Z,4.82
2022-11-12T19:18:46.101Z,4.18
2022-11-12T19:21:31.756Z,4.63
2022-11-12T19:24:17.730Z,6.28
2022-11-12T19:27:04.053Z,11.00
2022-11-12T19:29:50.430Z,6.07
2022-11-12T19:32:36.653Z,5.05
2022-11-12T19:35:22.403Z,4.20
2022-11-12T19:38:08.390Z,3.78
2022-11-12T19:40:56.721Z,4.05
2022-11-12T19:43:42.616Z,4.07
2022-11-12T19:46:28.155Z,4.20
2022-11-12T19:49:14.035Z,3.40
2022-11-12T19:51:59.725Z,3.88
2022-11-12T19:54:48.173Z,3.95
2022-11-12T19:57:33.820Z,3.83
2022-11-12T20:00:20.035Z,4.32
2022-11-12T20:03:08.356Z,4.80
2022-11-12T20:05:59.443Z,4.53
2022-11-12T20:08:46.067Z,4.45
2022-11-12T20:11:31.852Z,4.75
2022-11-12T20:14:17.475Z,4.10
2022-11-12T20:17:04.946Z,3.97
2022-11-12T20:19:51.152Z,6.57
2022-11-12T20:22:37.095Z,8.15
2022-11-12T20:25:22.738Z,7.63
2022-11-12T20:28:09.093Z,6.65
2022-11-12T20:31:01.858Z,5.10
2022-11-12T20:33:50.045Z,6.00
2022-11-12T20:36:35.434Z,6.22
2022-11-12T20:39:21.723Z,6.03
2022-11-12T20:42:07.402Z,6.97
2022-11-12T20:44:53.715Z,6.03
2022-11-12T20:47:42.028Z,7.03
2022-11-12T20:50:28.667Z,5.28
2022-11-12T20:53:14.314Z,6.40
2022-11-12T20:56:18.163Z,5.30
2022-11-12T20:59:04.037Z,4.55
2022-11-12T21:01:50.126Z,4.70
2022-11-12T21:04:35.880Z,4.55
2022-11-12T21:07:24.379Z,6.70
2022-11-12T21:10:10.405Z,6.70
2022-11-12T21:12:56.511Z,5.57
2022-11-12T21:15:46.253Z,5.90
2022-11-12T21:18:33.213Z,4.65
2022-11-12T21:21:21.544Z,4.35
2022-11-12T21:24:07.738Z,4.63
2022-11-12T21:26:53.102Z,4.55
2022-11-12T21:29:41.423Z,3.78
2022-11-12T21:32:27.455Z,4.93
2022-11-12T21:35:13.401Z,4.60
2022-11-12T21:37:59.646Z,5.30
2022-11-12T21:40:45.449Z,5.63
2022-11-12T21:43:31.290Z,6.25
2022-11-12T21:46:20.433Z,6.57
2022-11-12T21:49:06.620Z,5.35
2022-11-12T21:51:52.034Z,5.93
2022-11-12T21:54:38.098Z,5.38
2022-11-12T21:57:23.730Z,5.75
2022-11-12T22:00:39.889Z,6.03
2022-11-12T22:03:15.720Z,5.93
2022-11-12T22:06:02.052Z,4.82
2022-11-12T22:08:47.395Z,5.10
2022-11-12T22:11:33.416Z,5.25
2022-11-12T22:14:19.081Z,4.82
2022-11-12T22:17:06.159Z,6.43
2022-11-12T22:19:51.807Z,4.25
2022-11-12T22:22:37.519Z,4.97
2022-11-12T22:25:23.332Z,6.43
2022-11-12T22:28:08.783Z,4.82
2022-11-12T22:30:54.639Z,5.75
2022-11-12T22:33:40.344Z,6.75
2022-11-12T22:36:28.933Z,5.70
2022-11-12T22:39:14.611Z,5.80
2022-11-12T22:42:00.582Z,8.65
2022-11-12T22:44:45.955Z,9.65
2022-11-12T22:47:33.355Z,9.23
2022-11-12T22:50:18.846Z,10.02
2022-11-12T22:53:04.579Z,9.32
2022-11-12T22:55:50.283Z,8.95
2022-11-12T22:58:40.457Z,7.53
2022-11-12T23:01:28.003Z,8.07
2022-11-12T23:04:13.705Z,7.93
2022-11-12T23:06:59.880Z,9.43
2022-11-12T23:09:45.535Z,7.55
2022-11-12T23:12:31.043Z,7.65
2022-11-12T23:15:16.835Z,7.32
2022-11-12T23:18:02.484Z,6.85
2022-11-12T23:20:48.230Z,8.25
2022-11-12T23:23:35.389Z,8.30
2022-11-12T23:26:23.887Z,8.63
2022-11-12T23:29:11.726Z,7.72
2022-11-12T23:31:57.808Z,9.07
2022-11-12T23:34:43.563Z,8.15
2022-11-12T23:37:29.319Z,7.97
2022-11-12T23:40:15.429Z,6.35
2022-11-12T23:43:01.556Z,8.23
2022-11-12T23:45:50.397Z,8.02
2022-11-12T23:48:35.970Z,6.78
2022-11-12T23:51:22.795Z,6.15
2022-11-12T23:54:10.193Z,6.68
2022-11-12T23:56:56.076Z,5.70
2022-11-12T23:59:41.385Z,6.05
